createdAt,value
2023-04-27T00:00:42.949Z,179.35
2023-04-27T00:01:43.001Z,178.31
2023-04-27T00:02:43.072Z,179.95
2023-04-27T00:03:43.238Z,179.30
2023-04-27T00:04:43.631Z,179.08
2023-04-27T00:05:43.196Z,177.35
2023-04-27T00:06:43.959Z,181.10
2023-04-27T00:07:43.074Z,177.42
2023-04-27T00:08:43.073Z,179.03
2023-04-27T00:09:43.477Z,179.27
2023-04-27T00:10:43.124Z,179.04
2023-04-27T00:11:43.156Z,178.39
2023-04-27T00:12:43.207Z,179.08
2023-04-27T00:13:43.187Z,177.48
2023-04-27T00:14:43.482Z,178.00
2023-04-27T00:15:43.215Z,178.94
2023-04-27T00:16:43.287Z,177.15
2023-04-27T00:17:43.319Z,177.15
2023-04-27T00:18:43.270Z,178.56
2023-04-27T00:19:43.330Z,178.24
2023-04-27T00:20:43.317Z,178.96
2023-04-27T00:21:43.344Z,178.31
2023-04-27T00:22:43.343Z,176.40
2023-04-27T00:23:43.379Z,179.32
2023-04-27T00:24:43.403Z,177.15
2023-04-27T00:25:43.470Z,176.70
2023-04-27T00:26:43.436Z,176.64
2023-04-27T00:27:43.469Z,176.73
2023-04-27T00:28:43.520Z,177.63
2023-04-27T00:29:43.979Z,178.10
2023-04-27T00:30:43.519Z,176.31
2023-04-27T00:31:43.579Z,174.80
2023-04-27T00:32:43.577Z,176.69
2023-04-27T00:33:43.608Z,174.51
2023-04-27T00:34:43.587Z,174.96
2023-04-27T00:35:43.974Z,173.85
2023-04-27T00:36:43.632Z,175.21
2023-04-27T00:37:43.685Z,176.36
2023-04-27T00:38:43.711Z,177.90
2023-04-27T00:39:43.696Z,176.48
2023-04-27T00:40:44.000Z,174.65
2023-04-27T00:41:43.747Z,175.40
2023-04-27T00:42:43.742Z,175.81
2023-04-27T00:43:43.797Z,174.91
2023-04-27T00:44:43.852Z,176.45
2023-04-27T00:45:43.881Z,174.77
2023-04-27T00:46:43.821Z,175.39
2023-04-27T00:47:43.930Z,176.56
2023-04-27T00:48:43.912Z,175.92
2023-04-27T00:49:43.920Z,175.26
2023-04-27T00:50:43.931Z,176.05
2023-04-27T00:51:43.934Z,174.58
2023-04-27T00:52:44.012Z,174.48
2023-04-27T00:53:43.969Z,174.88
2023-04-27T00:54:44.030Z,173.48
2023-04-27T00:55:44.028Z,173.91
2023-04-27T00:56:44.041Z,177.12
2023-04-27T00:57:44.079Z,177.26
2023-04-27T00:58:44.085Z,171.18
2023-04-27T00:59:44.112Z,174.47
2023-04-27T01:00:44.121Z,174.15
2023-04-27T01:01:44.172Z,174.44
2023-04-27T01:02:44.290Z,172.08
2023-04-27T01:03:44.360Z,171.49
2023-04-27T01:04:44.247Z,173.52
2023-04-27T01:05:44.239Z,172.85
2023-04-27T01:06:44.248Z,172.32
2023-04-27T01:07:44.276Z,173.23
2023-04-27T01:08:44.287Z,171.63
2023-04-27T01:09:44.302Z,171.40
2023-04-27T01:10:44.341Z,172.63
2023-04-27T01:11:44.362Z,170.99
2023-04-27T01:12:44.363Z,170.21
2023-04-27T01:13:44.380Z,173.13
2023-04-27T01:14:44.433Z,173.24
2023-04-27T01:15:44.411Z,169.88
2023-04-27T01:16:44.525Z,173.70
2023-04-27T01:17:44.486Z,173.56
2023-04-27T01:18:44.511Z,171.02
2023-04-27T01:19:44.522Z,172.08
2023-04-27T01:20:44.524Z,171.40
2023-04-27T01:21:44.566Z,170.38
2023-04-27T01:22:44.577Z,172.03
2023-04-27T01:23:44.592Z,170.23
2023-04-27T01:24:44.628Z,170.95
2023-04-27T01:25:44.683Z,170.31
2023-04-27T01:26:44.680Z,173.15
2023-04-27T01:27:44.713Z,170.59
2023-04-27T01:28:44.740Z,170.51
2023-04-27T01:29:44.776Z,170.85
2023-04-27T01:30:44.765Z,170.66
2023-04-27T01:31:44.831Z,172.65
2023-04-27T01:32:44.879Z,168.67
2023-04-27T01:33:44.862Z,170.23
2023-04-27T01:34:44.953Z,171.07
2023-04-27T01:35:44.879Z,170.17
2023-04-27T01:36:44.913Z,170.34
2023-04-27T01:37:44.939Z,170.62
2023-04-27T01:38:44.998Z,169.08
2023-04-27T01:39:45.048Z,168.44
2023-04-27T01:40:45.065Z,171.28
2023-04-27T01:41:45.056Z,168.75
2023-04-27T01:42:45.072Z,168.13
2023-04-27T01:43:45.079Z,168.30
2023-04-27T01:44:45.076Z,168.99
2023-04-27T01:45:45.086Z,169.65
2023-04-27T01:46:45.223Z,168.98
2023-04-27T01:47:45.139Z,169.27
2023-04-27T01:48:45.133Z,168.71
2023-04-27T01:49:45.177Z,166.75
2023-04-27T01:50:45.161Z,168.24
2023-04-27T01:51:45.132Z,167.68
2023-04-27T01:52:45.164Z,167.49
2023-04-27T01:53:45.161Z,169.90
2023-04-27T01:54:45.198Z,168.32
2023-04-27T01:55:45.210Z,170.49
2023-04-27T01:56:45.228Z,168.13
2023-04-27T01:57:45.235Z,167.63
2023-04-27T01:58:45.229Z,166.84
2023-04-27T01:59:45.285Z,165.57
2023-04-27T02:00:45.254Z,166.34
2023-04-27T02:01:45.339Z,166.38
2023-04-27T02:02:45.429Z,166.44
2023-04-27T02:03:45.531Z,165.95
2023-04-27T02:04:45.553Z,167.27
2023-04-27T02:05:45.333Z,168.74
2023-04-27T02:06:45.337Z,168.14
2023-04-27T02:07:45.341Z,167.91
2023-04-27T02:08:45.394Z,168.20
2023-04-27T02:09:45.406Z,167.92
2023-04-27T02:10:45.430Z,167.24
2023-04-27T02:11:45.451Z,166.77
2023-04-27T02:12:45.438Z,167.28
2023-04-27T02:13:45.492Z,164.83
2023-04-27T02:14:45.503Z,167.09
2023-04-27T02:15:45.522Z,167.35
2023-04-27T02:16:45.507Z,165.26
2023-04-27T02:17:45.581Z,167.13
2023-04-27T02:18:45.527Z,167.09
2023-04-27T02:19:45.579Z,165.56
2023-04-27T02:20:45.574Z,164.91
2023-04-27T02:21:45.612Z,164.59
2023-04-27T02:22:45.588Z,167.59
2023-04-27T02:23:45.628Z,167.83
2023-04-27T02:24:45.649Z,166.04
2023-04-27T02:25:45.692Z,164.72
2023-04-27T02:26:45.683Z,166.04
2023-04-27T02:27:45.696Z,166.07
2023-04-27T02:28:45.702Z,165.91
2023-04-27T02:29:45.748Z,166.66
2023-04-27T02:30:45.739Z,166.46
2023-04-27T02:31:45.854Z,163.24
2023-04-27T02:32:45.824Z,165.85
2023-04-27T02:33:45.811Z,164.20
2023-04-27T02:34:45.848Z,165.07
2023-04-27T02:35:45.885Z,166.23
2023-04-27T02:36:45.904Z,162.97
2023-04-27T02:37:45.962Z,162.44
2023-04-27T02:38:45.904Z,164.52
2023-04-27T02:39:45.939Z,162.55
2023-04-27T02:40:45.999Z,164.51
2023-04-27T02:41:45.960Z,163.19
2023-04-27T02:42:46.002Z,164.53
2023-04-27T02:43:46.033Z,162.50
2023-04-27T02:44:46.068Z,163.68
2023-04-27T02:45:46.073Z,165.11
2023-04-27T02:46:46.105Z,163.73
2023-04-27T02:47:46.121Z,161.10
2023-04-27T02:48:46.096Z,164.20
2023-04-27T02:49:46.143Z,162.67
2023-04-27T02:50:46.169Z,162.77
2023-04-27T02:51:46.167Z,163.46
2023-04-27T02:52:46.182Z,163.04
2023-04-27T02:53:46.186Z,162.88
2023-04-27T02:54:46.238Z,160.24
2023-04-27T02:55:46.241Z,161.17
2023-04-27T02:56:46.276Z,161.24
2023-04-27T02:57:46.353Z,160.40
2023-04-27T02:58:46.353Z,160.31
2023-04-27T02:59:46.446Z,159.14
2023-04-27T03:00:48.167Z,161.26
2023-04-27T03:01:46.521Z,159.27
2023-04-27T03:02:46.546Z,158.14
2023-04-27T03:03:46.689Z,160.47
2023-04-27T03:04:46.566Z,160.87
2023-04-27T03:05:46.683Z,160.92
2023-04-27T03:06:46.619Z,160.03
2023-04-27T03:07:46.689Z,158.46
2023-04-27T03:08:46.673Z,160.82
2023-04-27T03:09:47.046Z,159.08
2023-04-27T03:10:46.737Z,158.81
2023-04-27T03:11:46.747Z,157.60
2023-04-27T03:12:46.851Z,159.73
2023-04-27T03:13:46.863Z,158.86
2023-04-27T03:14:46.906Z,159.20
2023-04-27T03:15:46.905Z,159.65
2023-04-27T03:16:47.055Z,158.03
2023-04-27T03:17:47.073Z,156.91
2023-04-27T03:18:47.026Z,159.63
2023-04-27T03:19:47.050Z,157.99
2023-04-27T03:20:47.090Z,157.79
2023-04-27T03:21:47.102Z,156.45
2023-04-27T03:22:47.151Z,156.38
2023-04-27T03:23:47.161Z,158.16
2023-04-27T03:24:47.200Z,159.92
2023-04-27T03:25:47.565Z,157.60
2023-04-27T03:26:47.272Z,159.28
2023-04-27T03:27:47.321Z,156.49
2023-04-27T03:28:47.320Z,156.10
2023-04-27T03:29:47.356Z,156.94
2023-04-27T03:30:47.416Z,158.20
2023-04-27T03:31:47.496Z,157.78
2023-04-27T03:32:48.121Z,155.23
2023-04-27T03:33:47.488Z,157.98
2023-04-27T03:34:47.486Z,156.89
2023-04-27T03:35:47.526Z,154.94
2023-04-27T03:36:47.576Z,156.91
2023-04-27T03:37:47.632Z,155.86
2023-04-27T03:38:47.614Z,155.60
2023-04-27T03:39:47.681Z,154.80
2023-04-27T03:40:47.746Z,155.59
2023-04-27T03:41:47.750Z,157.00
2023-04-27T03:42:47.817Z,158.41
2023-04-27T03:43:47.802Z,157.70
2023-04-27T03:44:47.820Z,157.60
2023-04-27T03:45:47.905Z,154.98
2023-04-27T03:46:47.912Z,153.48
2023-04-27T03:47:48.035Z,153.80
2023-04-27T03:48:47.973Z,155.54
2023-04-27T03:49:48.020Z,154.49
2023-04-27T03:50:48.102Z,157.36
2023-04-27T03:51:48.076Z,155.56
2023-04-27T03:52:48.103Z,155.01
2023-04-27T03:53:48.194Z,155.50
2023-04-27T03:54:48.219Z,155.63
2023-04-27T03:55:48.236Z,157.37
2023-04-27T03:56:48.265Z,154.77
2023-04-27T03:57:48.308Z,157.47
2023-04-27T03:58:48.307Z,156.61
2023-04-27T03:59:48.354Z,155.18
2023-04-27T04:00:48.364Z,155.19
2023-04-27T04:01:48.402Z,156.17
2023-04-27T04:02:48.584Z,155.36
2023-04-27T04:03:48.629Z,154.82
2023-04-27T04:04:48.681Z,151.56
2023-04-27T04:05:48.568Z,154.62
2023-04-27T04:06:48.580Z,151.49
2023-04-27T04:07:48.655Z,153.29
2023-04-27T04:08:48.618Z,154.64
2023-04-27T04:09:48.658Z,152.73
2023-04-27T04:10:48.689Z,155.58
2023-04-27T04:11:48.736Z,155.74
2023-04-27T04:12:48.796Z,152.23
2023-04-27T04:13:48.808Z,153.88
2023-04-27T04:14:48.856Z,155.08
2023-04-27T04:15:48.903Z,152.63
2023-04-27T04:16:48.890Z,152.49
2023-04-27T04:17:48.984Z,152.96
2023-04-27T04:18:48.963Z,150.37
2023-04-27T04:19:49.001Z,153.47
2023-04-27T04:20:49.100Z,152.49
2023-04-27T04:21:49.060Z,153.16
2023-04-27T04:22:49.097Z,152.10
2023-04-27T04:23:49.129Z,152.05
2023-04-27T04:24:49.138Z,149.92
2023-04-27T04:25:49.181Z,152.68
2023-04-27T04:26:49.206Z,152.33
2023-04-27T04:27:49.262Z,153.85
2023-04-27T04:28:49.264Z,152.45
2023-04-27T04:29:49.326Z,152.58
2023-04-27T04:30:49.351Z,153.11
2023-04-27T04:31:49.444Z,152.92
2023-04-27T04:32:49.426Z,153.29
2023-04-27T04:33:49.416Z,156.40
2023-04-27T04:34:49.532Z,154.75
2023-04-27T04:35:49.527Z,151.90
2023-04-27T04:36:49.536Z,155.91
2023-04-27T04:37:49.578Z,154.77
2023-04-27T04:38:49.582Z,154.27
2023-04-27T04:39:49.627Z,154.46
2023-04-27T04:40:49.649Z,154.94
2023-04-27T04:41:49.708Z,152.78
2023-04-27T04:42:49.713Z,154.04
2023-04-27T04:43:49.762Z,154.26
2023-04-27T04:44:49.789Z,153.90
2023-04-27T04:45:49.785Z,155.23
2023-04-27T04:46:49.870Z,154.58
2023-04-27T04:47:49.938Z,154.71
2023-04-27T04:48:49.938Z,155.92
2023-04-27T04:49:49.931Z,153.90
2023-04-27T04:50:49.968Z,155.28
2023-04-27T04:51:50.009Z,156.02
2023-04-27T04:52:50.034Z,154.57
2023-04-27T04:53:50.056Z,157.32
2023-04-27T04:54:50.121Z,157.36
2023-04-27T04:55:50.590Z,151.94
2023-04-27T04:56:50.157Z,154.18
2023-04-27T04:57:50.235Z,153.79
2023-04-27T04:58:50.189Z,156.84
2023-04-27T04:59:50.288Z,154.43
2023-04-27T05:00:50.611Z,154.03
2023-04-27T05:01:50.365Z,154.32
2023-04-27T05:02:50.487Z,153.96
2023-04-27T05:03:50.429Z,153.51
2023-04-27T05:04:50.480Z,154.36
2023-04-27T05:05:50.590Z,153.73
2023-04-27T05:06:50.483Z,150.98
2023-04-27T05:07:50.521Z,153.25
2023-04-27T05:08:50.508Z,151.71
2023-04-27T05:09:50.549Z,150.90
2023-04-27T05:10:51.101Z,152.69
2023-04-27T05:11:50.640Z,152.73
2023-04-27T05:12:50.635Z,151.85
2023-04-27T05:13:50.711Z,151.51
2023-04-27T05:14:50.738Z,155.10
2023-04-27T05:15:50.773Z,152.04
2023-04-27T05:16:50.786Z,151.54
2023-04-27T05:17:50.878Z,152.25
2023-04-27T05:18:50.889Z,149.62
2023-04-27T05:19:50.909Z,151.45
2023-04-27T05:20:50.953Z,150.50
2023-04-27T05:21:50.939Z,149.74
2023-04-27T05:22:50.993Z,150.77
2023-04-27T05:23:51.034Z,151.88
2023-04-27T05:24:51.082Z,150.12
2023-04-27T05:25:51.064Z,149.40
2023-04-27T05:26:51.107Z,149.31
2023-04-27T05:27:51.140Z,149.41
2023-04-27T05:28:51.162Z,148.62
2023-04-27T05:29:51.200Z,149.44
2023-04-27T05:30:51.257Z,149.56
2023-04-27T05:31:51.333Z,148.19
2023-04-27T05:32:51.343Z,147.95
2023-04-27T05:33:51.325Z,149.75
2023-04-27T05:34:51.426Z,152.23
2023-04-27T05:35:51.631Z,147.96
2023-04-27T05:36:51.464Z,147.76
2023-04-27T05:37:51.482Z,148.80
2023-04-27T05:38:52.112Z,149.80
2023-04-27T05:39:51.546Z,146.05
2023-04-27T05:40:51.620Z,149.83
2023-04-27T05:41:51.645Z,149.67
2023-04-27T05:42:51.681Z,149.14
2023-04-27T05:43:51.726Z,149.78
2023-04-27T05:44:51.763Z,148.24
2023-04-27T05:45:51.803Z,149.74
2023-04-27T05:46:51.820Z,150.17
2023-04-27T05:47:51.895Z,148.78
2023-04-27T05:48:51.875Z,145.96
2023-04-27T05:49:51.888Z,150.14
2023-04-27T05:50:52.139Z,148.90
2023-04-27T05:51:51.995Z,151.47
2023-04-27T05:52:51.990Z,152.13
2023-04-27T05:53:52.004Z,154.55
2023-04-27T05:54:52.064Z,152.21
2023-04-27T05:55:52.085Z,154.87
2023-04-27T05:56:52.124Z,153.82
2023-04-27T05:58:04.615Z,153.51
2023-04-27T05:58:53.278Z,153.76
2023-04-27T05:59:52.143Z,154.12
2023-04-27T06:00:52.635Z,154.48
2023-04-27T06:01:52.187Z,153.99
2023-04-27T06:02:52.214Z,152.17
2023-04-27T06:03:52.242Z,157.34
2023-04-27T06:04:52.175Z,159.12
2023-04-27T06:05:52.141Z,158.20
2023-04-27T06:06:52.123Z,162.66
2023-04-27T06:07:52.106Z,157.61
2023-04-27T06:08:52.120Z,162.42
2023-04-27T06:09:52.082Z,161.32
2023-04-27T06:10:52.075Z,165.24
2023-04-27T06:11:52.050Z,170.40
2023-04-27T06:12:52.112Z,170.33
2023-04-27T06:13:52.068Z,173.15
2023-04-27T06:14:52.056Z,172.37
2023-04-27T06:15:52.071Z,175.55
2023-04-27T06:16:52.105Z,175.12
2023-04-27T06:17:52.127Z,184.80
2023-04-27T06:18:52.069Z,185.10
2023-04-27T06:19:52.090Z,183.22
2023-04-27T06:20:52.124Z,185.48
2023-04-27T06:21:52.086Z,188.53
2023-04-27T06:22:52.106Z,191.10
2023-04-27T06:23:52.108Z,194.12
2023-04-27T06:24:52.074Z,195.93
2023-04-27T06:25:52.121Z,196.99
2023-04-27T06:26:52.152Z,195.67
2023-04-27T06:27:52.176Z,200.34
2023-04-27T06:28:52.172Z,201.52
2023-04-27T06:29:52.212Z,201.35
2023-04-27T06:30:52.260Z,205.21
2023-04-27T06:31:52.376Z,203.79
2023-04-27T06:32:52.348Z,206.39
2023-04-27T06:33:52.372Z,205.17
2023-04-27T06:34:52.449Z,224.25
2023-04-27T06:35:52.678Z,225.44
2023-04-27T06:36:52.569Z,220.42
2023-04-27T06:37:52.824Z,220.85
2023-04-27T06:38:52.702Z,224.61
2023-04-27T06:39:52.754Z,224.89
2023-04-27T06:40:53.184Z,221.25
2023-04-27T06:41:52.841Z,218.75
2023-04-27T06:42:52.894Z,222.83
2023-04-27T06:43:52.955Z,225.63
2023-04-27T06:44:52.993Z,222.81
2023-04-27T06:45:53.060Z,224.49
2023-04-27T06:46:53.082Z,227.76
2023-04-27T06:47:53.146Z,228.08
2023-04-27T06:48:53.182Z,226.62
2023-04-27T06:49:53.233Z,224.95
2023-04-27T06:50:53.268Z,223.07
2023-04-27T06:51:53.282Z,224.55
2023-04-27T06:52:53.456Z,229.85
2023-04-27T06:53:53.365Z,219.95
2023-04-27T06:54:53.421Z,223.65
2023-04-27T06:55:53.443Z,223.67
2023-04-27T06:56:53.497Z,223.03
2023-04-27T06:57:53.542Z,225.03
2023-04-27T06:58:53.607Z,222.03
2023-04-27T06:59:53.634Z,221.75
2023-04-27T07:00:54.187Z,219.89
2023-04-27T07:01:53.799Z,218.34
2023-04-27T07:02:53.867Z,219.63
2023-04-27T07:03:53.933Z,210.88
2023-04-27T07:04:54.022Z,211.85
2023-04-27T07:05:54.132Z,208.29
2023-04-27T07:06:53.972Z,210.38
2023-04-27T07:07:54.016Z,209.40
2023-04-27T07:08:54.101Z,213.26
2023-04-27T07:09:54.097Z,212.29
2023-04-27T07:10:54.177Z,212.96
2023-04-27T07:11:54.323Z,215.46
2023-04-27T07:12:54.285Z,213.49
2023-04-27T07:13:54.346Z,212.22
2023-04-27T07:14:54.404Z,204.67
2023-04-27T07:15:54.505Z,175.96
2023-04-27T07:16:54.504Z,139.63
2023-04-27T07:17:54.528Z,132.71
2023-04-27T07:18:54.513Z,98.24
2023-04-27T07:19:54.567Z,95.87
2023-04-27T07:20:54.571Z,66.71
2023-04-27T07:21:54.598Z,68.58
2023-04-27T07:22:54.633Z,53.87
2023-04-27T07:23:56.066Z,56.65
2023-04-27T07:24:54.762Z,49.98
2023-04-27T07:25:54.810Z,33.32
2023-04-27T07:26:54.888Z,28.52
2023-04-27T07:27:54.912Z,35.77
2023-04-27T07:28:54.948Z,25.00
2023-04-27T07:29:54.998Z,34.13
2023-04-27T07:30:54.992Z,28.80
2023-04-27T07:31:55.053Z,29.40
2023-04-27T07:32:55.073Z,21.61
2023-04-27T07:33:55.096Z,46.50
2023-04-27T07:34:55.245Z,39.82
2023-04-27T07:35:55.329Z,41.53
2023-04-27T07:36:55.308Z,21.20
2023-04-27T07:37:55.298Z,40.77
2023-04-27T07:38:55.320Z,36.08
2023-04-27T07:39:55.338Z,40.63
2023-04-27T07:40:55.341Z,43.20
2023-04-27T07:41:55.352Z,38.99
2023-04-27T07:42:55.396Z,48.31
2023-04-27T07:43:55.391Z,41.74
2023-04-27T07:44:55.409Z,53.51
2023-04-27T07:45:55.745Z,51.35
2023-04-27T07:46:55.521Z,57.87
2023-04-27T07:47:56.429Z,61.69
2023-04-27T07:48:55.488Z,38.91
2023-04-27T07:49:55.478Z,58.39
2023-04-27T07:50:55.489Z,70.00
2023-04-27T07:51:55.481Z,90.34
2023-04-27T07:52:55.471Z,85.89
2023-04-27T07:53:55.470Z,96.95
2023-04-27T07:54:55.456Z,96.11
2023-04-27T07:55:55.484Z,96.14
2023-04-27T07:56:55.424Z,112.14
2023-04-27T07:57:55.461Z,119.09
2023-04-27T07:58:55.447Z,124.08
2023-04-27T07:59:55.468Z,121.75
2023-04-27T08:00:55.392Z,128.34
2023-04-27T08:01:59.419Z,132.61
2023-04-27T08:02:57.057Z,133.25
2023-04-27T08:03:55.604Z,135.80
2023-04-27T08:04:55.910Z,149.26
2023-04-27T08:05:55.740Z,159.26
2023-04-27T08:06:55.838Z,172.50
2023-04-27T08:07:55.410Z,190.04
2023-04-27T08:08:55.334Z,196.93
2023-04-27T08:09:55.338Z,207.01
2023-04-27T08:10:55.698Z,210.75
2023-04-27T08:11:55.394Z,219.29
2023-04-27T08:12:55.346Z,232.09
2023-04-27T08:13:55.331Z,228.74
2023-04-27T08:14:55.357Z,223.07
2023-04-27T08:15:55.325Z,226.86
2023-04-27T08:16:55.435Z,231.46
2023-04-27T08:17:55.357Z,239.21
2023-04-27T08:18:55.354Z,239.21
2023-04-27T08:19:55.338Z,237.68
2023-04-27T08:20:55.651Z,236.52
2023-04-27T08:21:55.455Z,241.63
2023-04-27T08:22:55.457Z,247.83
2023-04-27T08:23:55.443Z,249.28
2023-04-27T08:24:55.488Z,244.38
2023-04-27T08:25:55.502Z,244.21
2023-04-27T08:26:55.492Z,246.26
2023-04-27T08:27:55.548Z,250.37
2023-04-27T08:28:55.528Z,246.18
2023-04-27T08:29:55.558Z,250.00
2023-04-27T08:30:55.598Z,244.48
2023-04-27T08:31:56.903Z,242.66
2023-04-27T08:32:55.625Z,244.77
2023-04-27T08:33:55.584Z,250.82
2023-04-27T08:34:55.585Z,247.00
2023-04-27T08:35:55.616Z,236.66
2023-04-27T08:36:55.616Z,237.39
2023-04-27T08:37:55.610Z,233.81
2023-04-27T08:38:55.610Z,233.15
2023-04-27T08:39:55.642Z,235.72
2023-04-27T08:40:55.647Z,235.16
2023-04-27T08:41:55.638Z,234.85
2023-04-27T08:42:55.657Z,233.98
2023-04-27T08:43:56.820Z,235.57
2023-04-27T08:44:55.623Z,235.02
2023-04-27T08:45:55.688Z,234.17
2023-04-27T08:46:55.745Z,237.74
2023-04-27T08:47:55.827Z,243.66
2023-04-27T08:48:55.808Z,243.98
2023-04-27T08:49:55.807Z,240.33
2023-04-27T08:50:55.839Z,233.00
2023-04-27T08:51:55.806Z,236.97
2023-04-27T08:52:55.866Z,236.87
2023-04-27T08:53:55.852Z,237.88
2023-04-27T08:54:55.928Z,235.96
2023-04-27T08:55:55.825Z,233.79
2023-04-27T08:56:55.861Z,229.55
2023-04-27T08:57:55.853Z,218.81
2023-04-27T08:58:55.873Z,219.95
2023-04-27T08:59:55.862Z,224.39
2023-04-27T09:00:55.838Z,224.04
2023-04-27T09:01:55.914Z,219.67
2023-04-27T09:02:56.045Z,215.57
2023-04-27T09:03:56.212Z,201.42
2023-04-27T09:04:56.063Z,194.41
2023-04-27T09:06:04.356Z,188.90
2023-04-27T09:06:56.958Z,189.00
2023-04-27T09:07:55.938Z,185.42
2023-04-27T09:08:55.929Z,182.70
2023-04-27T09:09:55.947Z,176.53
2023-04-27T09:10:55.955Z,178.83
2023-04-27T09:11:55.917Z,170.06
2023-04-27T09:12:55.926Z,156.09
2023-04-27T09:13:55.942Z,151.34
2023-04-27T09:14:55.879Z,146.39
2023-04-27T09:15:55.889Z,142.82
2023-04-27T09:16:55.880Z,138.74
2023-04-27T09:17:55.870Z,146.78
2023-04-27T09:18:55.870Z,135.75
2023-04-27T09:19:55.848Z,136.27
2023-04-27T09:20:55.852Z,136.86
2023-04-27T09:21:55.825Z,126.07
2023-04-27T09:22:55.865Z,124.37
2023-04-27T09:23:55.906Z,129.91
2023-04-27T09:24:55.964Z,125.76
2023-04-27T09:25:56.012Z,132.31
2023-04-27T09:26:55.993Z,138.42
2023-04-27T09:27:56.030Z,132.20
2023-04-27T09:28:56.098Z,123.57
2023-04-27T09:29:56.119Z,118.18
2023-04-27T09:30:56.162Z,118.68
2023-04-27T09:31:56.219Z,119.88
2023-04-27T09:32:56.272Z,117.40
2023-04-27T09:33:56.233Z,112.17
2023-04-27T09:34:56.246Z,105.99
2023-04-27T09:35:56.285Z,105.42
2023-04-27T09:36:56.345Z,114.73
2023-04-27T09:37:56.377Z,118.03
2023-04-27T09:38:56.393Z,112.28
2023-04-27T09:39:56.428Z,113.03
2023-04-27T09:40:56.481Z,104.37
2023-04-27T09:41:56.474Z,109.28
2023-04-27T09:42:56.518Z,115.73
2023-04-27T09:43:57.844Z,117.07
2023-04-27T09:44:56.613Z,111.33
2023-04-27T09:45:56.615Z,106.35
2023-04-27T09:46:56.661Z,113.49
2023-04-27T09:47:56.718Z,119.84
2023-04-27T09:48:56.738Z,122.22
2023-04-27T09:49:56.732Z,117.73
2023-04-27T09:50:56.817Z,120.24
2023-04-27T09:51:56.782Z,130.72
2023-04-27T09:52:56.860Z,139.13
2023-04-27T09:53:56.887Z,141.29
2023-04-27T09:54:56.900Z,143.74
2023-04-27T09:55:57.258Z,143.24
2023-04-27T09:56:56.969Z,132.36
2023-04-27T09:57:56.985Z,136.54
2023-04-27T09:58:59.696Z,124.01
2023-04-27T09:59:57.019Z,123.11
2023-04-27T10:00:57.065Z,134.48
2023-04-27T10:01:56.998Z,132.14
2023-04-27T10:02:57.557Z,133.18
2023-04-27T10:03:57.138Z,129.62
2023-04-27T10:04:57.043Z,132.43
2023-04-27T10:05:56.958Z,136.25
2023-04-27T10:06:57.966Z,144.89
2023-04-27T10:07:56.956Z,144.45
2023-04-27T10:08:56.965Z,143.01
2023-04-27T10:09:56.927Z,137.76
2023-04-27T10:10:56.937Z,145.97
2023-04-27T10:11:56.923Z,147.04
2023-04-27T10:12:56.926Z,147.13
2023-04-27T10:13:56.892Z,140.03
2023-04-27T10:14:56.894Z,139.00
2023-04-27T10:15:56.891Z,143.96
2023-04-27T10:16:56.936Z,140.57
2023-04-27T10:17:56.950Z,148.84
2023-04-27T10:18:56.884Z,142.60
2023-04-27T10:19:58.287Z,144.45
2023-04-27T10:20:56.860Z,144.86
2023-04-27T10:21:57.222Z,144.53
2023-04-27T10:22:56.828Z,145.64
2023-04-27T10:23:56.841Z,144.41
2023-04-27T10:24:56.799Z,146.24
2023-04-27T10:25:56.825Z,149.34
2023-04-27T10:26:56.810Z,150.63
2023-04-27T10:27:56.801Z,155.78
2023-04-27T10:28:56.800Z,182.49
2023-04-27T10:29:56.779Z,162.74
2023-04-27T10:30:56.809Z,157.69
2023-04-27T10:31:56.802Z,158.31
2023-04-27T10:32:56.848Z,159.13
2023-04-27T10:33:56.792Z,158.68
2023-04-27T10:34:56.733Z,159.25
2023-04-27T10:35:56.741Z,180.20
2023-04-27T10:36:56.742Z,168.84
2023-04-27T10:37:56.768Z,161.56
2023-04-27T10:38:56.739Z,161.18
2023-04-27T10:39:56.719Z,160.61
2023-04-27T10:40:56.721Z,182.65
2023-04-27T10:41:56.766Z,182.04
2023-04-27T10:42:56.731Z,181.07
2023-04-27T10:43:56.721Z,182.95
2023-04-27T10:44:56.719Z,183.87
2023-04-27T10:45:56.739Z,191.11
2023-04-27T10:46:56.715Z,197.64
2023-04-27T10:47:56.724Z,203.00
2023-04-27T10:48:56.690Z,207.47
2023-04-27T10:49:56.697Z,217.04
2023-04-27T10:50:56.680Z,218.28
2023-04-27T10:51:56.671Z,218.39
2023-04-27T10:52:56.654Z,214.39
2023-04-27T10:53:56.663Z,216.28
2023-04-27T10:54:56.617Z,220.53
2023-04-27T10:55:56.694Z,222.99
2023-04-27T10:56:56.717Z,220.04
2023-04-27T10:57:56.785Z,222.83
2023-04-27T10:58:56.855Z,219.80
2023-04-27T10:59:56.915Z,220.07
2023-04-27T11:00:56.923Z,217.87
2023-04-27T11:01:57.043Z,218.59
2023-04-27T11:02:57.206Z,223.28
2023-04-27T11:03:57.122Z,226.25
2023-04-27T11:04:57.227Z,225.97
2023-04-27T11:05:58.078Z,230.99
2023-04-27T11:06:57.745Z,233.71
2023-04-27T11:07:57.358Z,227.15
2023-04-27T11:08:57.426Z,231.22
2023-04-27T11:09:57.500Z,238.72
2023-04-27T11:10:57.624Z,236.05
2023-04-27T11:11:57.567Z,238.87
2023-04-27T11:12:57.610Z,241.01
2023-04-27T11:13:57.656Z,242.47
2023-04-27T11:14:57.677Z,245.94
2023-04-27T11:15:57.769Z,245.45
2023-04-27T11:16:57.776Z,245.11
2023-04-27T11:17:57.778Z,246.70
2023-04-27T11:18:59.206Z,248.43
2023-04-27T11:19:57.852Z,249.40
2023-04-27T11:20:57.888Z,248.57
2023-04-27T11:21:58.248Z,250.00
2023-04-27T11:22:57.922Z,246.78
2023-04-27T11:23:57.946Z,246.43
2023-04-27T11:24:57.991Z,248.39
2023-04-27T11:25:58.044Z,249.91
2023-04-27T11:26:58.050Z,249.79
2023-04-27T11:27:58.063Z,249.05
2023-04-27T11:28:58.075Z,250.90
2023-04-27T11:29:58.124Z,248.44
2023-04-27T11:30:58.141Z,243.54
2023-04-27T11:31:58.243Z,249.51
2023-04-27T11:32:58.172Z,247.86
2023-04-27T11:33:58.168Z,247.46
2023-04-27T11:34:59.670Z,249.12
2023-04-27T11:35:58.251Z,250.00
2023-04-27T11:37:07.124Z,249.16
2023-04-27T11:37:59.249Z,249.31
2023-04-27T11:38:58.246Z,261.83
2023-04-27T11:39:58.200Z,269.18
2023-04-27T11:40:58.234Z,279.01
2023-04-27T11:41:58.235Z,287.16
2023-04-27T11:42:58.200Z,256.56
2023-04-27T11:43:58.186Z,242.95
2023-04-27T11:44:58.201Z,237.33
2023-04-27T11:45:58.162Z,240.51
2023-04-27T11:46:58.154Z,239.55
2023-04-27T11:47:58.167Z,241.01
2023-04-27T11:48:58.151Z,239.49
2023-04-27T11:49:58.169Z,240.92
2023-04-27T11:50:58.136Z,239.37
2023-04-27T11:51:58.288Z,235.55
2023-04-27T11:52:58.152Z,237.55
2023-04-27T11:53:58.136Z,233.20
2023-04-27T11:54:58.219Z,232.98
2023-04-27T11:55:58.202Z,234.82
2023-04-27T11:56:58.268Z,231.08
2023-04-27T11:57:58.351Z,231.40
2023-04-27T11:58:58.370Z,230.70
2023-04-27T11:59:58.369Z,229.22
2023-04-27T12:00:58.469Z,228.43
2023-04-27T12:01:58.505Z,229.13
2023-04-27T12:02:58.783Z,226.59
2023-04-27T12:04:01.510Z,226.07
2023-04-27T12:04:58.720Z,227.40
2023-04-27T12:06:07.686Z,225.49
2023-04-27T12:06:59.596Z,225.67
2023-04-27T12:07:58.572Z,223.04
2023-04-27T12:08:58.573Z,221.99
2023-04-27T12:10:00.724Z,220.29
2023-04-27T12:10:58.714Z,219.13
2023-04-27T12:11:58.697Z,217.04
2023-04-27T12:12:58.737Z,215.87
2023-04-27T12:13:58.827Z,216.22
2023-04-27T12:14:58.809Z,216.67
2023-04-27T12:16:00.419Z,221.77
2023-04-27T12:16:58.927Z,224.58
2023-04-27T12:17:59.014Z,227.60
2023-04-27T12:18:58.996Z,231.02
2023-04-27T12:19:59.035Z,232.79
2023-04-27T12:21:02.794Z,230.36
2023-04-27T12:21:59.048Z,230.45
2023-04-27T12:22:59.034Z,230.50
2023-04-27T12:23:59.017Z,229.60
2023-04-27T12:24:59.037Z,224.78
2023-04-27T12:25:59.038Z,224.29
2023-04-27T12:26:59.065Z,225.42
2023-04-27T12:27:59.007Z,222.40
2023-04-27T12:28:58.982Z,222.94
2023-04-27T12:29:59.009Z,224.27